sensor_id;sensor_type;location;lat;lon;timestamp;pressure;altitude;pressure_sealevel;temperature;humidity
65534;BME280;53640;55.838;37.184;2023-07-22T00:00:25;98396.34;;;12.03;52.75
65534;BME280;53640;55.838;37.184;2023-07-22T00:03:04;98388.00;;;11.88;53.21
65534;BME280;53640;55.838;37.184;2023-07-22T00:05:42;98454.56;;;12.34;53.21
65534;BME280;53640;55.838;37.184;2023-07-22T00:08:25;98379.53;;;11.84;52.93
65534;BME280;53640;55.838;37.184;2023-07-22T00:10:59;98443.88;;;12.28;53.16
65534;BME280;53640;55.838;37.184;2023-07-22T00:13:25;98436.34;;;12.13;53.19
65534;BME280;53640;55.838;37.184;2023-07-22T00:16:02;98466.41;;;12.28;53.42
65534;BME280;53640;55.838;37.184;2023-07-22T00:18:53;98514.03;;;12.58;53.28
65534;BME280;53640;55.838;37.184;2023-07-22T00:21:47;98359.66;;;11.62;53.09
65534;BME280;53640;55.838;37.184;2023-07-22T00:28:01;98379.56;;;11.67;53.30
65534;BME280;53640;55.838;37.184;2023-07-22T00:30:29;98421.69;;;11.92;53.57
65534;BME280;53640;55.838;37.184;2023-07-22T00:32:56;98425.53;;;11.96;53.31
65534;BME280;53640;55.838;37.184;2023-07-22T00:35:25;98371.28;;;11.57;53.39
65534;BME280;53640;55.838;37.184;2023-07-22T00:37:52;98407.72;;;11.83;53.63
65534;BME280;53640;55.838;37.184;2023-07-22T00:40:19;98403.38;;;11.82;53.47
65534;BME280;53640;55.838;37.184;2023-07-22T00:42:46;98368.56;;;11.57;53.65
65534;BME280;53640;55.838;37.184;2023-07-22T00:45:12;98409.31;;;11.79;53.41
65534;BME280;53640;55.838;37.184;2023-07-22T00:47:39;98397.47;;;11.68;53.64
65534;BME280;53640;55.838;37.184;2023-07-22T00:50:08;98522.03;;;12.47;53.14
65534;BME280;53640;55.838;37.184;2023-07-22T00:52:35;98403.19;;;11.72;53.35
65534;BME280;53640;55.838;37.184;2023-07-22T00:55:02;98516.03;;;12.45;53.92
65534;BME280;53640;55.838;37.184;2023-07-22T00:57:36;98462.19;;;12.15;53.59
65534;BME280;53640;55.838;37.184;2023-07-22T01:00:05;98416.69;;;11.84;53.64
65534;BME280;53640;55.838;37.184;2023-07-22T01:02:35;98432.72;;;11.85;53.91
65534;BME280;53640;55.838;37.184;2023-07-22T01:05:03;98376.38;;;11.54;54.03
65534;BME280;53640;55.838;37.184;2023-07-22T01:07:34;98470.72;;;12.07;53.89
65534;BME280;53640;55.838;37.184;2023-07-22T01:10:01;98414.03;;;11.72;53.93
65534;BME280;53640;55.838;37.184;2023-07-22T01:12:32;98476.34;;;12.01;54.29
65534;BME280;53640;55.838;37.184;2023-07-22T01:15:02;98391.31;;;11.39;54.55
65534;BME280;53640;55.838;37.184;2023-07-22T01:17:36;98479.16;;;11.89;54.43
65534;BME280;53640;55.838;37.184;2023-07-22T01:20:04;98413.59;;;11.41;54.67
65534;BME280;53640;55.838;37.184;2023-07-22T01:22:52;98539.03;;;12.21;54.77
65534;BME280;53640;55.838;37.184;2023-07-22T01:25:45;98529.75;;;12.17;54.80
65534;BME280;53640;55.838;37.184;2023-07-22T01:28:15;98400.69;;;11.32;55.11
65534;BME280;53640;55.838;37.184;2023-07-22T01:30:42;98418.94;;;11.36;54.80
65534;BME280;53640;55.838;37.184;2023-07-22T01:33:08;98471.31;;;11.59;55.21
65534;BME280;53640;55.838;37.184;2023-07-22T01:35:38;98399.38;;;11.17;54.99
65534;BME280;53640;55.838;37.184;2023-07-22T01:38:10;98424.06;;;11.21;55.22
65534;BME280;53640;55.838;37.184;2023-07-22T01:40:40;98457.19;;;11.40;55.25
65534;BME280;53640;55.838;37.184;2023-07-22T01:43:07;98474.53;;;11.56;55.05
65534;BME280;53640;55.838;37.184;2023-07-22T01:45:33;98441.16;;;11.21;55.44
65534;BME280;53640;55.838;37.184;2023-07-22T01:48:18;98460.28;;;11.32;55.13
65534;BME280;53640;55.838;37.184;2023-07-22T01:50:58;98554.41;;;11.98;55.18
65534;BME280;53640;55.838;37.184;2023-07-22T01:53:40;98511.56;;;11.67;55.25
65534;BME280;53640;55.838;37.184;2023-07-22T01:56:21;98485.19;;;11.45;55.35
65534;BME280;53640;55.838;37.184;2023-07-22T01:59:01;98433.94;;;11.10;55.73
65534;BME280;53640;55.838;37.184;2023-07-22T02:01:39;98516.06;;;11.61;55.72
65534;BME280;53640;55.838;37.184;2023-07-22T02:04:21;98438.50;;;11.10;55.28
65534;BME280;53640;55.838;37.184;2023-07-22T02:06:53;98494.47;;;11.49;56.01
65534;BME280;53640;55.838;37.184;2023-07-22T02:09:20;98408.69;;;10.93;55.72
65534;BME280;53640;55.838;37.184;2023-07-22T02:11:56;98447.28;;;11.17;55.77
65534;BME280;53640;55.838;37.184;2023-07-22T02:14:38;98513.03;;;11.58;56.21
65534;BME280;53640;55.838;37.184;2023-07-22T02:17:06;98428.19;;;11.07;56.01
65534;BME280;53640;55.838;37.184;2023-07-22T02:19:38;98458.22;;;11.22;56.04
65534;BME280;53640;55.838;37.184;2023-07-22T02:22:11;98487.00;;;11.40;56.00
65534;BME280;53640;55.838;37.184;2023-07-22T02:24:43;98438.50;;;11.10;56.12
65534;BME280;53640;55.838;37.184;2023-07-22T02:27:13;98503.41;;;11.50;56.17
65534;BME280;53640;55.838;37.184;2023-07-22T02:29:45;98457.78;;;11.13;56.10
65534;BME280;53640;55.838;37.184;2023-07-22T02:32:19;98497.09;;;11.44;56.06
65534;BME280;53640;55.838;37.184;2023-07-22T02:34:48;98472.13;;;11.25;56.08
65534;BME280;53640;55.838;37.184;2023-07-22T02:37:26;98505.22;;;11.44;56.19
65534;BME280;53640;55.838;37.184;2023-07-22T02:39:57;98516.97;;;11.50;56.49
65534;BME280;53640;55.838;37.184;2023-07-22T02:42:24;98443.91;;;11.10;56.21
65534;BME280;53640;55.838;37.184;2023-07-22T02:44:53;98485.81;;;11.36;56.30
65534;BME280;53640;55.838;37.184;2023-07-22T02:47:20;98494.63;;;11.43;56.24
65534;BME280;53640;55.838;37.184;2023-07-22T02:53:27;98464.06;;;11.14;56.48
65534;BME280;53640;55.838;37.184;2023-07-22T02:56:05;98446.41;;;11.11;56.47
65534;BME280;53640;55.838;37.184;2023-07-22T02:58:50;98490.88;;;11.44;57.00
65534;BME280;53640;55.838;37.184;2023-07-22T03:02:14;98563.13;;;11.84;57.05
65534;BME280;53640;55.838;37.184;2023-07-22T03:04:51;98510.81;;;11.55;56.69
65534;BME280;53640;55.838;37.184;2023-07-22T03:07:31;98467.38;;;11.33;56.76
65534;BME280;53640;55.838;37.184;2023-07-22T03:10:00;98587.69;;;12.11;56.80
65534;BME280;53640;55.838;37.184;2023-07-22T03:13:17;98458.91;;;11.29;56.96
65534;BME280;53640;55.838;37.184;2023-07-22T03:15:50;98505.56;;;11.65;56.67
65534;BME280;53640;55.838;37.184;2023-07-22T03:18:28;98491.28;;;11.52;56.63
65534;BME280;53640;55.838;37.184;2023-07-22T03:21:45;98493.00;;;11.59;56.71
65534;BME280;53640;55.838;37.184;2023-07-22T03:24:46;98556.91;;;12.00;56.74
65534;BME280;53640;55.838;37.184;2023-07-22T03:27:47;98494.72;;;11.65;56.57
65534;BME280;53640;55.838;37.184;2023-07-22T03:34:45;98476.81;;;11.64;56.60
65534;BME280;53640;55.838;37.184;2023-07-22T03:37:34;98494.44;;;11.78;56.51
65534;BME280;53640;55.838;37.184;2023-07-22T03:43:35;98462.50;;;11.68;56.50
65534;BME280;53640;55.838;37.184;2023-07-22T03:46:16;98479.59;;;11.69;56.42
65534;BME280;53640;55.838;37.184;2023-07-22T03:48:45;98554.22;;;12.22;56.15
65534;BME280;53640;55.838;37.184;2023-07-22T03:51:19;98560.63;;;12.33;56.59
65534;BME280;53640;55.838;37.184;2023-07-22T03:53:57;98520.13;;;12.09;56.23
65534;BME280;53640;55.838;37.184;2023-07-22T03:56:31;98597.31;;;12.74;56.34
65534;BME280;53640;55.838;37.184;2023-07-22T03:59:00;98605.06;;;12.82;56.43
65534;BME280;53640;55.838;37.184;2023-07-22T04:01:30;98540.72;;;12.44;55.91
65534;BME280;53640;55.838;37.184;2023-07-22T04:03:57;98524.09;;;12.40;55.68
65534;BME280;53640;55.838;37.184;2023-07-22T04:06:29;98494.13;;;12.30;55.54
65534;BME280;53640;55.838;37.184;2023-07-22T04:08:56;98484.91;;;12.31;55.58
65534;BME280;53640;55.838;37.184;2023-07-22T04:11:26;98507.69;;;12.52;55.28
65534;BME280;53640;55.838;37.184;2023-07-22T04:13:58;98531.78;;;12.65;55.33
65534;BME280;53640;55.838;37.184;2023-07-22T04:16:33;98578.53;;;13.11;55.02
65534;BME280;53640;55.838;37.184;2023-07-22T04:19:02;98507.97;;;12.72;54.92
65534;BME280;53640;55.838;37.184;2023-07-22T04:21:29;98564.13;;;13.11;54.97
65534;BME280;53640;55.838;37.184;2023-07-22T04:23:58;98475.88;;;12.69;54.64
65534;BME280;53640;55.838;37.184;2023-07-22T04:26:25;98530.63;;;13.05;54.38
65534;BME280;53640;55.838;37.184;2023-07-22T04:28:59;98600.47;;;13.54;54.20
65534;BME280;53640;55.838;37.184;2023-07-22T04:31:33;98548.91;;;13.32;54.33
65534;BME280;53640;55.838;37.184;2023-07-22T04:34:03;98487.06;;;12.95;54.18
65534;BME280;53640;55.838;37.184;2023-07-22T04:36:35;98475.91;;;12.91;54.09
65534;BME280;53640;55.838;37.184;2023-07-22T04:39:03;98554.22;;;13.49;53.79
65534;BME280;53640;55.838;37.184;2023-07-22T04:41:35;98567.41;;;13.62;54.00
65534;BME280;53640;55.838;37.184;2023-07-22T04:44:22;98539.13;;;13.63;53.86
65534;BME280;53640;55.838;37.184;2023-07-22T04:47:06;98543.66;;;13.79;53.31
65534;BME280;53640;55.838;37.184;2023-07-22T04:49:38;98627.38;;;14.36;53.29
65534;BME280;53640;55.838;37.184;2023-07-22T04:53:03;98624.22;;;14.50;53.06
65534;BME280;53640;55.838;37.184;2023-07-22T04:57:24;98616.56;;;14.47;52.35
65534;BME280;53640;55.838;37.184;2023-07-22T05:13:37;98480.28;;;13.84;52.15
65534;BME280;53640;55.838;37.184;2023-07-22T05:16:24;98636.16;;;14.81;52.11
65534;BME280;53640;55.838;37.184;2023-07-22T05:19:16;98629.41;;;14.88;51.90
65534;BME280;53640;55.838;37.184;2023-07-22T05:22:18;98495.19;;;14.08;51.62
65534;BME280;53640;55.838;37.184;2023-07-22T05:28:14;98546.38;;;14.59;51.41
65534;BME280;53640;55.838;37.184;2023-07-22T05:31:23;98602.72;;;14.96;51.50
65534;BME280;53640;55.838;37.184;2023-07-22T05:34:21;98503.81;;;14.37;50.93
65534;BME280;53640;55.838;37.184;2023-07-22T05:41:29;98478.13;;;14.28;50.77
65534;BME280;53640;55.838;37.184;2023-07-22T05:44:42;98519.47;;;14.62;50.98
65534;BME280;53640;55.838;37.184;2023-07-22T05:47:22;98597.91;;;15.13;50.64
65534;BME280;53640;55.838;37.184;2023-07-22T05:50:15;98476.88;;;14.41;50.08
65534;BME280;53640;55.838;37.184;2023-07-22T05:52:52;98616.56;;;15.47;50.19
65534;BME280;53640;55.838;37.184;2023-07-22T05:55:30;98474.50;;;14.60;49.92
65534;BME280;53640;55.838;37.184;2023-07-22T05:58:05;98539.28;;;15.05;49.60
65534;BME280;53640;55.838;37.184;2023-07-22T06:03:48;98580.06;;;15.53;49.08
65534;BME280;53640;55.838;37.184;2023-07-22T06:06:14;98498.38;;;15.05;49.28
65534;BME280;53640;55.838;37.184;2023-07-22T06:08:41;98624.34;;;15.96;49.38
65534;BME280;53640;55.838;37.184;2023-07-22T06:11:07;98542.41;;;15.60;49.00
65534;BME280;53640;55.838;37.184;2023-07-22T06:13:44;98541.88;;;15.68;48.51
65534;BME280;53640;55.838;37.184;2023-07-22T06:16:37;98495.47;;;15.43;47.69
65534;BME280;53640;55.838;37.184;2023-07-22T06:19:06;98540.53;;;15.91;47.61
65534;BME280;53640;55.838;37.184;2023-07-22T06:21:35;98515.16;;;15.80;46.83
65534;BME280;53640;55.838;37.184;2023-07-22T06:24:02;98583.69;;;16.35;47.03
65534;BME280;53640;55.838;37.184;2023-07-22T06:26:35;98523.84;;;16.13;46.73
65534;BME280;53640;55.838;37.184;2023-07-22T06:29:01;98563.16;;;16.53;46.63
65534;BME280;53640;55.838;37.184;2023-07-22T06:31:28;98590.97;;;16.86;46.18
65534;BME280;53640;55.838;37.184;2023-07-22T06:33:57;98611.38;;;17.14;45.75
65534;BME280;53640;55.838;37.184;2023-07-22T06:36:26;98609.16;;;17.26;45.33
65534;BME280;53640;55.838;37.184;2023-07-22T06:38:53;98609.91;;;17.42;44.90
65534;BME280;53640;55.838;37.184;2023-07-22T06:41:20;98610.34;;;17.59;44.70
65534;BME280;53640;55.838;37.184;2023-07-22T06:43:49;98615.72;;;17.79;44.11
65534;BME280;53640;55.838;37.184;2023-07-22T06:46:17;98577.50;;;17.64;43.35
65534;BME280;53640;55.838;37.184;2023-07-22T06:48:43;98617.22;;;18.01;43.46
65534;BME280;53640;55.838;37.184;2023-07-22T06:51:09;98599.16;;;18.00;42.74
65534;BME280;53640;55.838;37.184;2023-07-22T06:53:36;98600.22;;;18.04;42.10
65534;BME280;53640;55.838;37.184;2023-07-22T06:56:02;98610.81;;;18.16;42.04
65534;BME280;53640;55.838;37.184;2023-07-22T06:58:29;98618.28;;;18.39;42.53
65534;BME280;53640;55.838;37.184;2023-07-22T07:00:56;98610.50;;;18.51;41.78
65534;BME280;53640;55.838;37.184;2023-07-22T07:03:22;98603.69;;;18.49;41.60
65534;BME280;53640;55.838;37.184;2023-07-22T07:05:56;98632.03;;;18.68;41.08
65534;BME280;53640;55.838;37.184;2023-07-22T07:08:23;98605.97;;;18.71;40.17
65534;BME280;53640;55.838;37.184;2023-07-22T07:10:50;98617.00;;;18.90;40.88
65534;BME280;53640;55.838;37.184;2023-07-22T07:13:17;98613.91;;;18.96;40.52
65534;BME280;53640;55.838;37.184;2023-07-22T07:15:48;98609.19;;;19.02;40.09
65534;BME280;53640;55.838;37.184;2023-07-22T07:18:15;98578.59;;;18.90;40.07
65534;BME280;53640;55.838;37.184;2023-07-22T07:20:41;98592.88;;;19.11;39.94
65534;BME280;53640;55.838;37.184;2023-07-22T07:23:08;98584.31;;;19.17;38.58
65534;BME280;53640;55.838;37.184;2023-07-22T07:25:34;98603.84;;;19.35;38.87
65534;BME280;53640;55.838;37.184;2023-07-22T07:28:00;98605.44;;;19.41;38.97
65534;BME280;53640;55.838;37.184;2023-07-22T07:30:27;98542.75;;;19.05;38.29
65534;BME280;53640;55.838;37.184;2023-07-22T07:32:53;98602.19;;;19.39;37.65
65534;BME280;53640;55.838;37.184;2023-07-22T07:35:20;98601.59;;;19.37;37.42
65534;BME280;53640;55.838;37.184;2023-07-22T07:37:46;98608.72;;;19.43;37.43
65534;BME280;53640;55.838;37.184;2023-07-22T07:40:13;98554.31;;;19.02;36.93
65534;BME280;53640;55.838;37.184;2023-07-22T07:42:40;98602.81;;;19.31;37.03
65534;BME280;53640;55.838;37.184;2023-07-22T07:45:07;98604.97;;;19.34;37.55
65534;BME280;53640;55.838;37.184;2023-07-22T07:47:33;98593.56;;;19.21;37.74
65534;BME280;53640;55.838;37.184;2023-07-22T07:50:00;98597.50;;;19.15;37.29
65534;BME280;53640;55.838;37.184;2023-07-22T07:52:26;98563.09;;;19.04;37.42
65534;BME280;53640;55.838;37.184;2023-07-22T07:54:52;98557.22;;;19.11;36.93
65534;BME280;53640;55.838;37.184;2023-07-22T07:57:19;98579.06;;;19.45;36.98
65534;BME280;53640;55.838;37.184;2023-07-22T07:59:45;98563.16;;;19.42;36.72
65534;BME280;53640;55.838;37.184;2023-07-22T08:02:11;98570.72;;;19.50;35.83
65534;BME280;53640;55.838;37.184;2023-07-22T08:04:39;98599.22;;;19.92;35.86
65534;BME280;53640;55.838;37.184;2023-07-22T08:07:06;98599.44;;;20.14;35.16
65534;BME280;53640;55.838;37.184;2023-07-22T08:09:32;98601.13;;;20.29;35.18
65534;BME280;53640;55.838;37.184;2023-07-22T08:11:59;98581.34;;;20.27;35.27
65534;BME280;53640;55.838;37.184;2023-07-22T08:14:25;98576.69;;;20.28;35.38
65534;BME280;53640;55.838;37.184;2023-07-22T08:16:51;98606.56;;;20.48;34.84
65534;BME280;53640;55.838;37.184;2023-07-22T08:19:18;98592.19;;;20.37;34.75
65534;BME280;53640;55.838;37.184;2023-07-22T08:21:45;98602.06;;;20.38;34.39
65534;BME280;53640;55.838;37.184;2023-07-22T08:24:12;98615.84;;;20.52;34.58
65534;BME280;53640;55.838;37.184;2023-07-22T08:26:38;98606.78;;;20.52;34.99
65534;BME280;53640;55.838;37.184;2023-07-22T08:29:05;98609.63;;;20.47;35.24
65534;BME280;53640;55.838;37.184;2023-07-22T08:31:32;98613.41;;;20.64;34.67
65534;BME280;53640;55.838;37.184;2023-07-22T08:33:58;98579.19;;;20.57;35.10
65534;BME280;53640;55.838;37.184;2023-07-22T08:36:25;98602.34;;;20.70;35.31
65534;BME280;53640;55.838;37.184;2023-07-22T08:38:52;98612.34;;;20.79;34.68
65534;BME280;53640;55.838;37.184;2023-07-22T08:41:21;98615.50;;;20.73;34.53
65534;BME280;53640;55.838;37.184;2023-07-22T08:43:54;98593.00;;;20.38;34.33
65534;BME280;53640;55.838;37.184;2023-07-22T08:46:28;98589.53;;;20.46;34.79
65534;BME280;53640;55.838;37.184;2023-07-22T08:48:57;98622.81;;;20.77;34.72
65534;BME280;53640;55.838;37.184;2023-07-22T08:51:26;98618.84;;;20.70;34.63
65534;BME280;53640;55.838;37.184;2023-07-22T08:53:56;98615.19;;;20.74;34.37
65534;BME280;53640;55.838;37.184;2023-07-22T08:56:24;98620.63;;;20.93;34.29
65534;BME280;53640;55.838;37.184;2023-07-22T08:58:52;98596.47;;;20.90;34.04
65534;BME280;53640;55.838;37.184;2023-07-22T09:01:19;98604.72;;;20.90;34.02
65534;BME280;53640;55.838;37.184;2023-07-22T09:03:49;98613.06;;;20.99;33.18
65534;BME280;53640;55.838;37.184;2023-07-22T09:06:19;98599.72;;;21.20;33.17
65534;BME280;53640;55.838;37.184;2023-07-22T09:08:47;98607.16;;;21.47;32.52
65534;BME280;53640;55.838;37.184;2023-07-22T09:11:15;98618.72;;;21.49;31.83
65534;BME280;53640;55.838;37.184;2023-07-22T09:13:44;98618.06;;;21.38;32.83
65534;BME280;53640;55.838;37.184;2023-07-22T09:16:11;98598.91;;;21.33;32.55
65534;BME280;53640;55.838;37.184;2023-07-22T09:18:39;98611.53;;;21.61;31.74
65534;BME280;53640;55.838;37.184;2023-07-22T09:21:05;98618.84;;;21.66;31.73
65534;BME280;53640;55.838;37.184;2023-07-22T09:23:36;98623.75;;;21.69;31.79
65534;BME280;53640;55.838;37.184;2023-07-22T09:26:13;98615.84;;;21.54;31.96
65534;BME280;53640;55.838;37.184;2023-07-22T09:28:48;98613.53;;;21.70;31.85
65534;BME280;53640;55.838;37.184;2023-07-22T09:31:16;98615.19;;;21.71;32.18
65534;BME280;53640;55.838;37.184;2023-07-22T09:33:43;98594.78;;;21.72;31.87
65534;BME280;53640;55.838;37.184;2023-07-22T09:36:10;98609.25;;;22.14;32.08
65534;BME280;53640;55.838;37.184;2023-07-22T09:38:38;98621.41;;;22.13;32.09
65534;BME280;53640;55.838;37.184;2023-07-22T09:41:05;98624.75;;;22.09;32.57
65534;BME280;53640;55.838;37.184;2023-07-22T09:43:36;98595.28;;;21.96;32.02
65534;BME280;53640;55.838;37.184;2023-07-22T09:46:08;98628.50;;;22.27;31.56
65534;BME280;53640;55.838;37.184;2023-07-22T09:48:43;98618.31;;;22.59;30.48
65534;BME280;53640;55.838;37.184;2023-07-22T09:51:18;98606.56;;;23.07;30.11
65534;BME280;53640;55.838;37.184;2023-07-22T09:54:00;98622.78;;;23.57;29.36
65534;BME280;53640;55.838;37.184;2023-07-22T09:56:26;98621.25;;;23.33;28.17
65534;BME280;53640;55.838;37.184;2023-07-22T09:58:53;98609.34;;;23.16;28.58
65534;BME280;53640;55.838;37.184;2023-07-22T10:01:23;98613.88;;;23.12;28.87
65534;BME280;53640;55.838;37.184;2023-07-22T10:03:54;98639.06;;;23.10;29.08
65534;BME280;53640;55.838;37.184;2023-07-22T10:06:29;98618.31;;;23.30;28.65
65534;BME280;53640;55.838;37.184;2023-07-22T10:09:04;98607.19;;;23.44;28.49
65534;BME280;53640;55.838;37.184;2023-07-22T10:11:35;98627.59;;;24.09;27.37
65534;BME280;53640;55.838;37.184;2023-07-22T10:14:02;98638.47;;;23.96;27.33
65534;BME280;53640;55.838;37.184;2023-07-22T10:16:29;98604.91;;;23.54;27.99
65534;BME280;53640;55.838;37.184;2023-07-22T10:18:57;98633.66;;;23.45;28.28
65534;BME280;53640;55.838;37.184;2023-07-22T10:21:24;98637.28;;;23.71;28.12
65534;BME280;53640;55.838;37.184;2023-07-22T10:23:51;98614.22;;;24.11;26.81
65534;BME280;53640;55.838;37.184;2023-07-22T10:26:19;98618.56;;;24.72;25.89
65534;BME280;53640;55.838;37.184;2023-07-22T10:28:47;98635.31;;;25.23;23.97
65534;BME280;53640;55.838;37.184;2023-07-22T10:31:15;98571.81;;;24.71;25.51
65534;BME280;53640;55.838;37.184;2023-07-22T10:33:46;98600.66;;;24.70;25.57
65534;BME280;53640;55.838;37.184;2023-07-22T10:36:15;98605.25;;;25.04;24.95
65534;BME280;53640;55.838;37.184;2023-07-22T10:38:43;98611.34;;;25.57;25.15
65534;BME280;53640;55.838;37.184;2023-07-22T10:41:14;98635.00;;;26.05;24.17
65534;BME280;53640;55.838;37.184;2023-07-22T10:43:54;98645.22;;;25.62;24.52
65534;BME280;53640;55.838;37.184;2023-07-22T10:46:57;98653.47;;;25.03;24.64
65534;BME280;53640;55.838;37.184;2023-07-22T10:49:24;98639.91;;;24.63;25.32
65534;BME280;53640;55.838;37.184;2023-07-22T10:51:57;98633.41;;;24.33;25.59
65534;BME280;53640;55.838;37.184;2023-07-22T10:54:36;98608.59;;;24.80;25.03
65534;BME280;53640;55.838;37.184;2023-07-22T10:57:22;98617.53;;;25.54;24.86
65534;BME280;53640;55.838;37.184;2023-07-22T10:59:52;98632.69;;;26.49;23.45
65534;BME280;53640;55.838;37.184;2023-07-22T11:02:26;98630.22;;;26.47;23.06
65534;BME280;53640;55.838;37.184;2023-07-22T11:04:53;98636.72;;;26.51;23.38
65534;BME280;53640;55.838;37.184;2023-07-22T11:07:33;98628.75;;;26.62;23.55
65534;BME280;53640;55.838;37.184;2023-07-22T11:10:12;98592.75;;;26.99;22.82
65534;BME280;53640;55.838;37.184;2023-07-22T11:12:39;98607.22;;;27.53;21.51
65534;BME280;53640;55.838;37.184;2023-07-22T11:15:06;98631.38;;;27.89;20.18
65534;BME280;53640;55.838;37.184;2023-07-22T11:17:34;98609.03;;;27.86;19.63
65534;BME280;53640;55.838;37.184;2023-07-22T11:20:02;98608.44;;;27.93;20.13
65534;BME280;53640;55.838;37.184;2023-07-22T11:22:32;98649.78;;;28.19;19.32
65534;BME280;53640;55.838;37.184;2023-07-22T11:24:59;98620.53;;;27.60;19.78
65534;BME280;53640;55.838;37.184;2023-07-22T11:27:26;98656.09;;;27.17;20.40
65534;BME280;53640;55.838;37.184;2023-07-22T11:29:52;98616.97;;;26.53;21.50
65534;BME280;53640;55.838;37.184;2023-07-22T11:32:20;98616.50;;;26.09;21.86
65534;BME280;53640;55.838;37.184;2023-07-22T11:34:50;98636.88;;;26.13;22.17
65534;BME280;53640;55.838;37.184;2023-07-22T11:37:18;98650.06;;;25.95;22.25
65534;BME280;53640;55.838;37.184;2023-07-22T11:39:44;98640.25;;;25.77;23.13
65534;BME280;53640;55.838;37.184;2023-07-22T11:42:10;98658.94;;;25.59;23.49
65534;BME280;53640;55.838;37.184;2023-07-22T11:44:37;98653.75;;;25.19;23.35
65534;BME280;53640;55.838;37.184;2023-07-22T11:47:06;98646.38;;;24.85;23.97
65534;BME280;53640;55.838;37.184;2023-07-22T11:49:38;98654.09;;;25.17;23.88
65534;BME280;53640;55.838;37.184;2023-07-22T11:52:09;98610.59;;;25.47;23.62
65534;BME280;53640;55.838;37.184;2023-07-22T11:54:42;98653.06;;;26.11;22.85
65534;BME280;53640;55.838;37.184;2023-07-22T11:57:16;98628.16;;;26.23;23.06
65534;BME280;53640;55.838;37.184;2023-07-22T11:59:45;98630.59;;;26.58;22.21
65534;BME280;53640;55.838;37.184;2023-07-22T12:02:16;98642.56;;;26.16;22.14
65534;BME280;53640;55.838;37.184;2023-07-22T12:05:18;98650.13;;;25.57;22.95
65534;BME280;53640;55.838;37.184;2023-07-22T12:07:47;98621.94;;;24.78;23.12
65534;BME280;53640;55.838;37.184;2023-07-22T12:10:15;98655.38;;;24.47;23.77
65534;BME280;53640;55.838;37.184;2023-07-22T12:12:43;98664.84;;;24.20;25.53
65534;BME280;53640;55.838;37.184;2023-07-22T12:15:13;98650.28;;;23.71;26.63
65534;BME280;53640;55.838;37.184;2023-07-22T12:17:56;98692.03;;;23.21;28.78
65534;BME280;53640;55.838;37.184;2023-07-22T12:20:31;98669.69;;;21.96;32.14
65534;BME280;53640;55.838;37.184;2023-07-22T12:22:58;98677.03;;;21.51;32.67
65534;BME280;53640;55.838;37.184;2023-07-22T12:25:26;98598.66;;;20.60;33.85
65534;BME280;53640;55.838;37.184;2023-07-22T12:27:53;98666.69;;;20.55;33.66
65534;BME280;53640;55.838;37.184;2023-07-22T12:30:20;98621.31;;;20.01;31.67
65534;BME280;53640;55.838;37.184;2023-07-22T12:32:47;98656.03;;;20.15;31.99
65534;BME280;53640;55.838;37.184;2023-07-22T12:35:17;98664.03;;;20.31;32.73
65534;BME280;53640;55.838;37.184;2023-07-22T12:37:43;98634.63;;;20.78;33.24
65534;BME280;53640;55.838;37.184;2023-07-22T12:40:10;98652.94;;;21.43;33.84
65534;BME280;53640;55.838;37.184;2023-07-22T12:42:40;98655.00;;;22.37;33.97
65534;BME280;53640;55.838;37.184;2023-07-22T12:45:06;98642.75;;;23.05;33.02
65534;BME280;53640;55.838;37.184;2023-07-22T12:47:34;98616.28;;;23.53;31.80
65534;BME280;53640;55.838;37.184;2023-07-22T12:50:00;98596.69;;;24.15;29.42
65534;BME280;53640;55.838;37.184;2023-07-22T12:52:27;98635.53;;;25.18;28.00
65534;BME280;53640;55.838;37.184;2023-07-22T12:54:54;98642.19;;;25.46;28.69
65534;BME280;53640;55.838;37.184;2023-07-22T12:57:20;98622.44;;;25.27;27.59
65534;BME280;53640;55.838;37.184;2023-07-22T12:59:47;98638.06;;;25.32;26.87
65534;BME280;53640;55.838;37.184;2023-07-22T13:02:13;98609.81;;;25.00;27.22
65534;BME280;53640;55.838;37.184;2023-07-22T13:04:40;98617.38;;;24.91;26.62
65534;BME280;53640;55.838;37.184;2023-07-22T13:07:06;98647.03;;;24.82;27.55
65534;BME280;53640;55.838;37.184;2023-07-22T13:09:33;98638.72;;;24.90;27.88
65534;BME280;53640;55.838;37.184;2023-07-22T13:11:59;98633.06;;;25.16;27.88
65534;BME280;53640;55.838;37.184;2023-07-22T13:14:26;98597.41;;;25.44;27.63
65534;BME280;53640;55.838;37.184;2023-07-22T13:16:52;98581.81;;;25.31;26.63
65534;BME280;53640;55.838;37.184;2023-07-22T13:19:18;98596.06;;;25.12;27.48
65534;BME280;53640;55.838;37.184;2023-07-22T13:21:45;98613.25;;;24.97;27.79
65534;BME280;53640;55.838;37.184;2023-07-22T13:24:11;98607.38;;;24.60;28.13
65534;BME280;53640;55.838;37.184;2023-07-22T13:26:37;98593.06;;;24.32;28.48
65534;BME280;53640;55.838;37.184;2023-07-22T13:29:04;98583.34;;;24.00;28.40
65534;BME280;53640;55.838;37.184;2023-07-22T13:31:30;98568.34;;;23.58;28.62
65534;BME280;53640;55.838;37.184;2023-07-22T13:33:56;98590.09;;;23.50;28.61
65534;BME280;53640;55.838;37.184;2023-07-22T13:36:23;98587.59;;;23.23;28.95
65534;BME280;53640;55.838;37.184;2023-07-22T13:38:49;98559.38;;;22.86;29.81
65534;BME280;53640;55.838;37.184;2023-07-22T13:41:15;98586.13;;;22.77;29.83
65534;BME280;53640;55.838;37.184;2023-07-22T13:43:42;98563.41;;;22.49;29.97
65534;BME280;53640;55.838;37.184;2023-07-22T13:46:08;98603.66;;;22.50;30.35
65534;BME280;53640;55.838;37.184;2023-07-22T13:48:35;98591.88;;;22.35;30.55
65534;BME280;53640;55.838;37.184;2023-07-22T13:51:01;98516.44;;;21.64;30.59
65534;BME280;53640;55.838;37.184;2023-07-22T13:53:27;98579.91;;;21.95;30.95
65534;BME280;53640;55.838;37.184;2023-07-22T13:55:54;98602.25;;;21.94;31.10